Time;durP1;ratioP1;P1;durP2;ratioP2;P2;SDS_P1;SDS_P2;PMS_P1;PMS_P2;Temp;Humidity;BMP_temperature;BMP_pressure;BME280_temperature;BME280_humidity;BME280_pressure;Samples;Min_cycle;Max_cycle;Signal;HPM_P1;HPM_P2
2022/09/01 00:01:31;;;;;;;;;;;;;;;19.44;75.13;95627.38;5051524;28;20448;-67
2022/09/01 00:04:01;;;;;;;;;;;;;;;19.56;75.56;95619.19;5048873;28;20013;-69
2022/09/01 00:06:27;;;;;;;;;;;;;;;19.51;75.26;95624.06;5036094;28;20018;-67
2022/09/01 00:08:54;;;;;;;;;;;;;;;19.71;75.28;95625.75;5029846;28;20021;-68
2022/09/01 00:11:20;;;;;;;;;;;;;;;19.77;73.89;95631.66;5031312;28;20009;-67
2022/09/01 00:13:45;;;;;;;;;;;;;;;19.71;71.92;95631.13;5037658;28;20057;-67
2022/09/01 00:16:13;;;;;;;;;;;;;;;19.46;72.37;95631.28;5049595;28;20449;-67
2022/09/01 00:18:45;;;;;;;;;;;;;;;19.55;74.16;95625.72;5050179;28;20009;-68
2022/09/01 00:21:11;;;;;;;;;;;;;;;19.46;73.81;95625.91;5051254;28;20005;-67
2022/09/01 00:23:36;;;;;;;;;;;;;;;19.51;74.61;95632.16;5049756;28;20096;-67
2022/09/01 00:26:02;;;;;;;;;;;;;;;19.34;73.32;95627.88;5050850;28;20005;-67
2022/09/01 00:28:27;;;;;;;;;;;;;;;19.18;73.45;95623.25;5050861;28;20018;-67
2022/09/01 00:30:52;;;;;;;;;;;;;;;19.13;73.26;95617.34;5050627;28;20590;-68
2022/09/01 00:33:17;;;;;;;;;;;;;;;19.16;73.95;95622.84;5048061;28;20010;-67
2022/09/01 00:35:43;;;;;;;;;;;;;;;19.27;74.72;95620.41;5049299;28;20013;-67
2022/09/01 00:38:08;;;;;;;;;;;;;;;19.30;73.99;95621.63;5050973;28;20143;-68
2022/09/01 00:40:33;;;;;;;;;;;;;;;19.10;73.04;95618.84;5049330;28;20020;-67
2022/09/01 00:42:59;;;;;;;;;;;;;;;18.98;72.85;95616.19;5049510;28;20006;-67
2022/09/01 00:45:24;;;;;;;;;;;;;;;19.12;74.05;95608.47;5044340;28;20017;-67
2022/09/01 00:47:50;;;;;;;;;;;;;;;19.18;73.33;95609.78;5047844;28;20009;-67
2022/09/01 00:50:16;;;;;;;;;;;;;;;19.12;72.95;95607.69;5047697;28;20108;-67
2022/09/01 00:52:44;;;;;;;;;;;;;;;19.10;72.12;95608.06;5048840;28;20013;-66
2022/09/01 00:55:19;;;;;;;;;;;;;;;19.04;73.02;95611.31;5049548;28;20108;-68
2022/09/01 00:57:45;;;;;;;;;;;;;;;19.05;72.94;95605.59;5050083;28;20032;-67
2022/09/01 01:00:15;;;;;;;;;;;;;;;19.03;74.69;95613.25;5050217;28;20549;-67
2022/09/01 01:02:41;;;;;;;;;;;;;;;18.93;72.85;95608.34;5047661;28;20010;-67
2022/09/01 01:05:07;;;;;;;;;;;;;;;19.07;73.41;95608.72;5049126;28;20108;-67
2022/09/01 01:07:38;;;;;;;;;;;;;;;19.20;74.22;95618.31;5050221;28;20049;-67
2022/09/01 01:10:05;;;;;;;;;;;;;;;19.14;72.26;95613.50;5048571;28;20010;-66
2022/09/01 01:12:32;;;;;;;;;;;;;;;18.79;73.15;95546.03;5047769;28;20013;-67
2022/09/01 01:14:57;;;;;;;;;;;;;;;19.17;72.06;95616.31;5048760;28;20010;-68
2022/09/01 01:17:22;;;;;;;;;;;;;;;19.15;72.33;95607.00;5048410;28;20437;-67
2022/09/01 01:23:01;;;;;;;;;;;;;;;19.20;72.19;95607.53;5049015;28;20441;-66
2022/09/01 01:25:27;;;;;;;;;;;;;;;19.08;71.73;95604.13;5048659;28;20006;-67
2022/09/01 01:28:02;;;;;;;;;;;;;;;19.22;73.59;95599.88;5049032;28;20071;-68
2022/09/01 01:30:34;;;;;;;;;;;;;;;19.28;72.47;95605.00;5048698;28;20478;-67
2022/09/01 01:33:00;;;;;;;;;;;;;;;19.22;71.87;95602.56;5047068;28;20366;-67
2022/09/01 01:35:26;;;;;;;;;;;;;;;19.08;72.76;95598.72;5049842;28;20478;-68
2022/09/01 01:37:52;;;;;;;;;;;;;;;19.27;72.30;95600.75;5049039;28;20065;-67
2022/09/01 01:40:20;;;;;;;;;;;;;;;19.25;71.51;95603.03;5049868;28;20051;-67
2022/09/01 01:42:47;;;;;;;;;;;;;;;19.20;72.12;95601.38;5048567;28;20014;-67
2022/09/01 01:45:16;;;;;;;;;;;;;;;19.16;71.25;95601.25;5049602;28;20012;-68
2022/09/01 01:47:41;;;;;;;;;;;;;;;19.05;71.51;95592.13;5049009;28;20014;-67
2022/09/01 01:50:08;;;;;;;;;;;;;;;19.09;70.05;95595.69;5049349;28;20006;-67
2022/09/01 01:52:34;;;;;;;;;;;;;;;19.28;71.44;95599.59;5048553;28;20009;-67
2022/09/01 01:54:59;;;;;;;;;;;;;;;19.16;69.99;95595.09;5048394;28;20390;-67
2022/09/01 01:57:27;;;;;;;;;;;;;;;19.31;69.91;95588.13;5047459;28;20017;-67
2022/09/01 01:59:53;;;;;;;;;;;;;;;19.19;69.59;95597.88;5049619;28;20104;-67
2022/09/01 02:02:18;;;;;;;;;;;;;;;18.99;70.04;95596.22;5045947;28;20159;-67
2022/09/01 02:04:43;;;;;;;;;;;;;;;19.27;71.76;95595.34;5030009;28;20064;-67
2022/09/01 02:07:12;;;;;;;;;;;;;;;19.20;70.03;95594.06;5028228;28;20101;-67
2022/09/01 02:09:39;;;;;;;;;;;;;;;19.25;69.56;95597.63;5029394;28;20502;-67
2022/09/01 02:12:06;;;;;;;;;;;;;;;18.95;70.76;95531.41;5029139;28;20014;-66
2022/09/01 02:14:31;;;;;;;;;;;;;;;19.36;69.09;95594.03;5048371;28;20072;-67
2022/09/01 02:16:57;;;;;;;;;;;;;;;19.33;69.86;95596.66;5048338;28;20017;-68
2022/09/01 02:19:22;;;;;;;;;;;;;;;19.46;72.08;95598.91;5047307;28;20013;-68
2022/09/01 02:21:53;;;;;;;;;;;;;;;19.45;67.69;95599.28;5049700;28;20006;-67
2022/09/01 02:24:19;;;;;;;;;;;;;;;19.28;69.75;95591.50;5047547;28;20014;-67
2022/09/01 02:26:47;;;;;;;;;;;;;;;19.21;67.57;95595.63;5049390;28;20010;-67
2022/09/01 02:29:17;;;;;;;;;;;;;;;19.27;70.47;95592.66;5049468;28;20013;-66
2022/09/01 02:31:44;;;;;;;;;;;;;;;19.25;70.18;95603.03;5049406;28;20051;-67
2022/09/01 02:34:12;;;;;;;;;;;;;;;19.33;69.79;95593.94;5046510;28;20020;-67
2022/09/01 02:36:46;;;;;;;;;;;;;;;19.29;68.28;95599.25;5049179;28;20075;-66
2022/09/01 02:39:12;;;;;;;;;;;;;;;19.33;70.41;95596.66;5051258;28;20010;-67
2022/09/01 02:41:38;;;;;;;;;;;;;;;19.22;69.14;95599.09;5051282;28;20005;-67
2022/09/01 02:44:10;;;;;;;;;;;;;;;19.09;70.07;95597.59;5049637;28;20013;-67
2022/09/01 02:46:42;;;;;;;;;;;;;;;18.98;69.57;95597.31;5051634;28;20006;-68
2022/09/01 02:49:13;;;;;;;;;;;;;;;18.84;69.60;95605.06;5062916;28;20014;-66
2022/09/01 02:51:39;;;;;;;;;;;;;;;18.62;70.76;95598.28;5070994;28;20505;-66
2022/09/01 02:54:05;;;;;;;;;;;;;;;18.55;71.08;95598.09;5059837;28;20061;-66
2022/09/01 02:56:30;;;;;;;;;;;;;;;18.47;72.15;95593.63;5061378;28;20018;-67
2022/09/01 02:58:55;;;;;;;;;;;;;;;18.38;71.55;95607.25;5056628;28;20063;-67
2022/09/01 03:01:24;;;;;;;;;;;;;;;18.32;72.07;95595.13;5060744;28;20013;-68
2022/09/01 03:03:50;;;;;;;;;;;;;;;18.19;71.84;95597.88;5054926;28;20477;-68
2022/09/01 03:06:18;;;;;;;;;;;;;;;18.23;73.38;95595.28;5072625;28;20012;-68
2022/09/01 03:08:43;;;;;;;;;;;;;;;18.06;72.84;95598.22;5069645;28;20547;-68
2022/09/01 03:11:10;;;;;;;;;;;;;;;18.13;72.66;95591.16;5068876;28;20009;-67
2022/09/01 03:13:36;;;;;;;;;;;;;;;18.12;72.54;95591.50;5068560;28;20009;-67
2022/09/01 03:16:01;;;;;;;;;;;;;;;18.11;73.43;95579.94;5062269;28;20020;-68
2022/09/01 03:18:27;;;;;;;;;;;;;;;17.68;72.29;95526.75;5045254;28;20070;-69
2022/09/01 03:20:52;;;;;;;;;;;;;;;18.07;73.47;95578.28;5051115;28;20048;-68
2022/09/01 03:23:18;;;;;;;;;;;;;;;18.05;73.45;95584.00;5051853;28;20006;-67
2022/09/01 03:25:44;;;;;;;;;;;;;;;18.06;73.14;95582.88;5066991;28;20467;-68
2022/09/01 03:28:13;;;;;;;;;;;;;;;18.02;71.74;95579.31;5066652;28;20494;-67
2022/09/01 03:30:43;;;;;;;;;;;;;;;18.13;73.79;95580.41;5065744;28;20009;-67
2022/09/01 03:33:08;;;;;;;;;;;;;;;18.17;72.96;95577.81;5068550;28;20016;-67
2022/09/01 03:35:33;;;;;;;;;;;;;;;18.22;73.02;95579.44;5065154;28;20017;-67
2022/09/01 03:38:00;;;;;;;;;;;;;;;18.28;73.47;95573.50;5067674;28;20009;-67
2022/09/01 03:40:28;;;;;;;;;;;;;;;18.35;73.28;95573.69;5070245;28;20013;-69
2022/09/01 03:42:54;;;;;;;;;;;;;;;18.38;71.73;95574.94;5063214;28;20056;-66
2022/09/01 03:45:19;;;;;;;;;;;;;;;18.34;68.66;95572.13;5044994;28;20051;-66
2022/09/01 03:47:45;;;;;;;;;;;;;;;18.48;72.20;95569.06;5049251;28;20008;-66
2022/09/01 03:50:19;;;;;;;;;;;;;;;18.55;73.18;95568.44;5047858;28;20022;-66
2022/09/01 03:52:45;;;;;;;;;;;;;;;18.49;72.27;95565.22;5041771;28;20012;-65
2022/09/01 03:55:10;;;;;;;;;;;;;;;18.48;69.76;95568.25;5049445;28;20104;-65
2022/09/01 03:57:40;;;;;;;;;;;;;;;18.48;70.96;95566.34;5070512;28;20020;-66
2022/09/01 04:00:12;;;;;;;;;;;;;;;18.56;72.12;95565.41;5054778;28;20021;-66
2022/09/01 04:02:37;;;;;;;;;;;;;;;18.55;72.15;95561.16;5048643;28;20394;-66
2022/09/01 04:05:02;;;;;;;;;;;;;;;18.56;72.08;95556.53;5049160;28;20014;-66
2022/09/01 04:07:29;;;;;;;;;;;;;;;18.45;71.57;95553.56;5050201;28;20010;-66
2022/09/01 04:09:54;;;;;;;;;;;;;;;18.44;72.01;95555.47;5086803;22;20048;-67
2022/09/01 04:12:20;;;;;;;;;;;;;;;18.50;72.52;95550.63;5092885;28;20490;-67
2022/09/01 04:14:47;;;;;;;;;;;;;;;18.53;72.44;95551.84;5091897;28;20401;-68
2022/09/01 04:19:56;;;;;;;;;;;;;;;18.51;71.95;95554.88;5090345;28;20020;-67
2022/09/01 04:22:28;;;;;;;;;;;;;;;18.28;70.07;95546.56;5090416;28;20036;-67
2022/09/01 04:24:53;;;;;;;;;;;;;;;18.42;71.31;95557.72;5071390;28;20012;-66
2022/09/01 04:27:20;;;;;;;;;;;;;;;18.34;70.33;95553.28;5091027;28;20013;-67
2022/09/01 04:29:45;;;;;;;;;;;;;;;18.37;70.11;95559.88;5072364;28;20674;-67
2022/09/01 04:32:11;;;;;;;;;;;;;;;18.27;70.58;95558.47;5087915;28;20694;-68
2022/09/01 04:34:39;;;;;;;;;;;;;;;18.30;70.56;95560.47;5088996;28;20020;-68
2022/09/01 04:37:13;;;;;;;;;;;;;;;18.33;70.98;95567.09;5090983;28;20493;-68
2022/09/01 04:39:39;;;;;;;;;;;;;;;18.25;69.75;95559.94;5089499;28;20004;-68
2022/09/01 04:42:05;;;;;;;;;;;;;;;18.29;69.58;95558.91;5090335;28;20698;-68
2022/09/01 04:44:31;;;;;;;;;;;;;;;18.40;70.74;95564.59;5089243;28;20166;-67
2022/09/01 04:46:56;;;;;;;;;;;;;;;18.36;70.28;95566.41;5089707;28;20106;-68
2022/09/01 04:49:25;;;;;;;;;;;;;;;18.44;70.11;95560.88;5089069;28;20063;-70
2022/09/01 04:51:51;;;;;;;;;;;;;;;18.41;68.71;95561.53;5090782;28;20005;-68
2022/09/01 04:54:16;;;;;;;;;;;;;;;18.43;69.72;95570.06;5088574;28;20020;-68
2022/09/01 04:56:43;;;;;;;;;;;;;;;18.38;69.96;95570.31;5071909;28;20016;-68
2022/09/01 04:59:10;;;;;;;;;;;;;;;18.35;68.21;95570.22;5089786;28;20009;-68
2022/09/01 05:01:45;;;;;;;;;;;;;;;18.16;69.77;95568.94;5089251;28;20462;-68
2022/09/01 05:04:19;;;;;;;;;;;;;;;18.27;70.22;95565.75;5088125;28;20009;-68
2022/09/01 05:06:45;;;;;;;;;;;;;;;18.33;68.94;95562.50;5090466;28;20005;-68
2022/09/01 05:09:11;;;;;;;;;;;;;;;18.16;68.50;95565.44;5089520;28;20012;-68
2022/09/01 05:11:38;;;;;;;;;;;;;;;18.29;69.63;95566.22;5088587;28;20074;-68
2022/09/01 05:14:05;;;;;;;;;;;;;;;18.42;70.14;95567.72;5089183;28;20020;-68
2022/09/01 05:16:32;;;;;;;;;;;;;;;18.48;69.94;95566.34;5071145;28;20083;-68
2022/09/01 05:19:00;;;;;;;;;;;;;;;18.49;68.83;95561.75;5088170;28;20499;-67
2022/09/01 05:21:27;;;;;;;;;;;;;;;18.63;68.87;95571.00;5089586;28;20016;-68
2022/09/01 05:23:53;;;;;;;;;;;;;;;18.64;67.65;95575.25;5089695;28;20425;-66
2022/09/01 05:26:20;;;;;;;;;;;;;;;18.91;69.01;95572.88;5089327;28;20009;-67
2022/09/01 05:28:47;;;;;;;;;;;;;;;18.67;65.94;95571.06;5089105;28;20462;-67
2022/09/01 05:31:12;;;;;;;;;;;;;;;19.11;68.33;95568.38;5079301;28;20115;-68
2022/09/01 05:33:44;;;;;;;;;;;;;;;19.33;67.11;95572.38;5077700;28;20778;-68
2022/09/01 05:36:10;;;;;;;;;;;;;;;19.34;65.15;95571.25;5080506;28;20113;-67
2022/09/01 05:38:36;;;;;;;;;;;;;;;19.31;64.58;95574.66;5076633;28;20100;-68
2022/09/01 05:41:03;;;;;;;;;;;;;;;19.46;64.59;95561.16;5061497;28;20013;-67
2022/09/01 05:43:29;;;;;;;;;;;;;;;19.55;65.30;95565.56;5073977;28;20477;-69
2022/09/01 05:45:55;;;;;;;;;;;;;;;19.57;64.38;95568.69;5069587;28;20726;-67
2022/09/01 05:48:22;;;;;;;;;;;;;;;19.69;64.68;95569.41;5074039;28;20008;-68
2022/09/01 05:50:48;;;;;;;;;;;;;;;19.84;63.48;95567.00;5080499;28;20012;-67
2022/09/01 05:53:17;;;;;;;;;;;;;;;20.14;62.66;95562.66;5089506;28;20012;-66
2022/09/01 05:55:47;;;;;;;;;;;;;;;20.30;61.46;95567.97;5090238;28;20009;-66
2022/09/01 05:58:15;;;;;;;;;;;;;;;20.52;61.97;95569.19;5088974;28;20443;-65
2022/09/01 06:00:47;;;;;;;;;;;;;;;20.32;58.98;95567.63;5051858;28;20013;-66
2022/09/01 06:03:13;;;;;;;;;;;;;;;20.50;60.44;95566.88;5058811;28;20009;-67
2022/09/01 06:05:39;;;;;;;;;;;;;;;20.76;61.58;95566.19;5090337;28;20365;-67
2022/09/01 06:08:05;;;;;;;;;;;;;;;20.93;60.91;95570.34;5070628;28;20055;-67
2022/09/01 06:10:32;;;;;;;;;;;;;;;20.62;59.72;95571.31;5089706;28;20013;-68
2022/09/01 06:13:01;;;;;;;;;;;;;;;20.90;59.17;95570.31;5089362;28;20044;-69
2022/09/01 06:15:28;;;;;;;;;;;;;;;20.67;56.85;95576.44;5093622;28;20060;-68
2022/09/01 06:17:54;;;;;;;;;;;;;;;20.81;56.57;95565.13;5092919;28;20021;-67
2022/09/01 06:20:21;;;;;;;;;;;;;;;21.00;57.78;95567.00;5093125;28;20488;-68
2022/09/01 06:22:47;;;;;;;;;;;;;;;20.71;56.42;95563.78;5093526;28;20009;-67
2022/09/01 06:25:17;;;;;;;;;;;;;;;20.88;56.64;95567.97;5093813;28;20008;-68
2022/09/01 06:27:43;;;;;;;;;;;;;;;21.13;56.60;95565.66;5074448;28;20112;-70
2022/09/01 06:30:13;;;;;;;;;;;;;;;21.39;56.35;95575.00;5093296;28;20100;-68
2022/09/01 06:32:40;;;;;;;;;;;;;;;21.47;54.94;95571.28;5092097;28;20009;-68
2022/09/01 06:35:08;;;;;;;;;;;;;;;21.54;54.24;95571.38;5093767;28;20016;-68
2022/09/01 06:37:33;;;;;;;;;;;;;;;21.77;53.42;95569.41;5092536;28;20013;-68
2022/09/01 06:39:59;;;;;;;;;;;;;;;22.04;52.38;95572.88;5094339;28;20012;-68
2022/09/01 06:42:24;;;;;;;;;;;;;;;21.69;51.83;95572.38;5092878;28;20493;-67
2022/09/01 06:44:51;;;;;;;;;;;;;;;22.28;52.19;95576.31;5093245;28;20005;-68
2022/09/01 06:47:16;;;;;;;;;;;;;;;22.54;50.71;95575.47;5092377;28;20009;-67
2022/09/01 06:49:41;;;;;;;;;;;;;;;22.96;51.40;95579.81;5093374;28;20012;-68
2022/09/01 06:52:07;;;;;;;;;;;;;;;22.26;49.74;95576.66;5092661;28;20009;-68
2022/09/01 06:54:34;;;;;;;;;;;;;;;22.46;50.56;95579.22;5074946;28;20013;-67
2022/09/01 06:57:02;;;;;;;;;;;;;;;22.04;52.46;95582.94;5092022;28;20009;-68
2022/09/01 06:59:32;;;;;;;;;;;;;;;22.25;51.82;95585.94;5075174;28;20016;-68
2022/09/01 07:02:00;;;;;;;;;;;;;;;22.68;50.76;95588.41;5092245;28;20021;-68
2022/09/01 07:04:28;;;;;;;;;;;;;;;22.74;50.36;95586.91;5092818;28;20453;-68
2022/09/01 07:06:53;;;;;;;;;;;;;;;22.92;50.37;95592.53;5092654;28;20558;-68
2022/09/01 07:09:19;;;;;;;;;;;;;;;23.25;50.23;95599.84;5092847;28;20056;-68
2022/09/01 07:11:44;;;;;;;;;;;;;;;23.27;48.10;95598.31;5092652;28;20056;-68
2022/09/01 07:14:10;;;;;;;;;;;;;;;23.23;48.68;95602.91;5092481;28;20103;-68
2022/09/01 07:16:38;;;;;;;;;;;;;;;23.32;48.54;95597.97;5091276;28;20020;-68
2022/09/01 07:19:05;;;;;;;;;;;;;;;22.94;48.12;95606.53;5092754;28;20385;-68
2022/09/01 07:21:31;;;;;;;;;;;;;;;23.22;48.32;95604.06;5090691;28;20008;-68
2022/09/01 07:23:58;;;;;;;;;;;;;;;23.19;47.91;95612.22;5071969;28;20013;-68
2022/09/01 07:26:24;;;;;;;;;;;;;;;23.41;48.23;95610.47;5077373;28;20001;-68
2022/09/01 07:28:50;;;;;;;;;;;;;;;23.33;47.96;95607.66;5092769;28;20487;-68
2022/09/01 07:31:26;;;;;;;;;;;;;;;23.66;47.66;95614.19;5092187;28;20376;-68
2022/09/01 07:33:53;;;;;;;;;;;;;;;23.25;47.68;95616.91;5091427;28;20009;-66
2022/09/01 07:36:19;;;;;;;;;;;;;;;22.38;47.67;95610.91;5085226;28;20040;-65
2022/09/01 07:38:50;;;;;;;;;;;;;;;23.32;48.18;95614.25;5090799;28;20650;-65
2022/09/01 07:41:16;;;;;;;;;;;;;;;23.41;47.78;95605.81;5092511;28;20048;-65
2022/09/01 07:43:43;;;;;;;;;;;;;;;23.64;47.14;95615.69;5091986;28;20484;-64
2022/09/01 07:46:09;;;;;;;;;;;;;;;23.99;45.56;95621.38;5090127;28;20051;-64
2022/09/01 07:48:34;;;;;;;;;;;;;;;24.21;44.40;95622.31;5080012;28;20021;-65
2022/09/01 07:51:00;;;;;;;;;;;;;;;24.01;44.68;95623.75;5071901;28;20104;-64
2022/09/01 07:53:30;;;;;;;;;;;;;;;23.93;45.45;95628.34;5071425;28;20100;-64
2022/09/01 07:55:56;;;;;;;;;;;;;;;24.42;45.21;95615.47;5084886;28;20090;-63
2022/09/01 07:58:23;;;;;;;;;;;;;;;24.71;45.06;95617.13;5091366;28;20488;-64
2022/09/01 08:00:50;;;;;;;;;;;;;;;24.66;43.98;95614.75;5090208;28;20016;-65
2022/09/01 08:03:17;;;;;;;;;;;;;;;24.66;43.76;95628.38;5090402;28;20017;-65
2022/09/01 08:05:43;;;;;;;;;;;;;;;25.09;43.10;95628.53;5091682;28;20101;-65
2022/09/01 08:08:08;;;;;;;;;;;;;;;25.00;42.61;95625.38;5091342;28;20100;-66
2022/09/01 08:10:37;;;;;;;;;;;;;;;25.46;42.04;95621.97;5091421;28;20520;-66
2022/09/01 08:13:02;;;;;;;;;;;;;;;25.70;41.33;95626.66;5082717;28;20096;-66
2022/09/01 08:15:28;;;;;;;;;;;;;;;24.30;43.77;95627.41;5086164;28;20120;-66
2022/09/01 08:17:53;;;;;;;;;;;;;;;24.63;43.50;95640.81;5090216;28;20485;-66
2022/09/01 08:20:19;;;;;;;;;;;;;;;24.17;43.76;95640.53;5091414;28;20001;-65
2022/09/01 08:22:44;;;;;;;;;;;;;;;24.44;43.69;95645.75;5090064;28;20823;-65
2022/09/01 08:25:09;;;;;;;;;;;;;;;23.77;44.42;95636.78;5090122;28;20009;-65
2022/09/01 08:27:37;;;;;;;;;;;;;;;23.52;45.15;95646.63;5083412;28;20009;-65
2022/09/01 08:30:04;;;;;;;;;;;;;;;23.40;45.53;95644.19;5086028;28;20009;-65
2022/09/01 08:32:30;;;;;;;;;;;;;;;23.93;44.47;95647.34;5086002;28;20017;-67
2022/09/01 08:34:55;;;;;;;;;;;;;;;24.09;43.22;95647.06;5082242;28;20101;-66
2022/09/01 08:37:21;;;;;;;;;;;;;;;23.81;44.33;95642.25;5075575;28;20055;-66
2022/09/01 08:39:48;;;;;;;;;;;;;;;23.88;43.59;95641.50;5083476;28;20420;-66
2022/09/01 08:42:16;;;;;;;;;;;;;;;23.46;45.56;95642.69;5085113;28;20016;-66
2022/09/01 08:44:44;;;;;;;;;;;;;;;23.57;44.78;95640.84;5086351;28;20473;-67
2022/09/01 08:47:11;;;;;;;;;;;;;;;23.89;43.48;95573.19;5066006;28;20013;-66
2022/09/01 08:49:38;;;;;;;;;;;;;;;24.32;43.54;95647.63;5083078;28;20016;-67
2022/09/01 08:52:09;;;;;;;;;;;;;;;23.53;44.23;95648.16;5069320;28;20064;-67
2022/09/01 08:54:40;;;;;;;;;;;;;;;23.45;45.20;95652.78;5087354;28;20017;-66
2022/09/01 08:57:26;;;;;;;;;;;;;;;24.23;44.02;95652.59;5090618;28;20478;-66
2022/09/01 08:59:51;;;;;;;;;;;;;;;23.89;43.80;95646.53;5090465;28;20015;-67
2022/09/01 09:02:26;;;;;;;;;;;;;;;24.34;43.92;95653.44;5088689;28;20013;-66
2022/09/01 09:04:57;;;;;;;;;;;;;;;24.59;42.95;95650.09;5090543;28;20008;-69
2022/09/01 09:07:32;;;;;;;;;;;;;;;23.77;44.06;95650.34;5090674;28;20005;-68
2022/09/01 09:10:04;;;;;;;;;;;;;;;23.80;44.12;95656.94;5088240;28;20093;-67
2022/09/01 09:12:33;;;;;;;;;;;;;;;24.70;42.52;95653.66;5088212;28;21004;-67
2022/09/01 09:15:03;;;;;;;;;;;;;;;24.58;41.81;95651.28;5087345;28;20017;-66
2022/09/01 09:17:33;;;;;;;;;;;;;;;24.02;42.61;95649.75;5080079;28;20080;-68
2022/09/01 09:19:59;;;;;;;;;;;;;;;23.22;44.41;95658.34;5087483;28;20544;-66
2022/09/01 09:22:24;;;;;;;;;;;;;;;23.98;42.94;95646.22;5083219;28;20064;-66
2022/09/01 09:24:54;;;;;;;;;;;;;;;23.68;43.02;95644.44;5084758;28;20009;-66
2022/09/01 09:27:19;;;;;;;;;;;;;;;23.67;43.38;95659.19;5084730;28;20016;-66
2022/09/01 09:29:52;;;;;;;;;;;;;;;24.15;42.16;95648.28;5080637;28;20009;-66
2022/09/01 09:32:18;;;;;;;;;;;;;;;24.69;41.60;95654.03;5090429;28;20058;-67
2022/09/01 09:34:44;;;;;;;;;;;;;;;24.31;42.05;95648.78;5084802;28;20042;-67
2022/09/01 09:37:24;;;;;;;;;;;;;;;24.19;42.74;95649.09;5086591;28;20009;-67
2022/09/01 09:40:08;;;;;;;;;;;;;;;24.70;41.40;95653.66;5083315;28;20488;-67
2022/09/01 09:42:34;;;;;;;;;;;;;;;24.28;41.67;95654.97;5086979;28;20078;-67
2022/09/01 09:45:02;;;;;;;;;;;;;;;24.10;41.80;95651.34;5084847;28;20435;-66
2022/09/01 09:47:36;;;;;;;;;;;;;;;23.88;42.15;95641.50;5078645;28;20020;-66
2022/09/01 09:50:11;;;;;;;;;;;;;;;22.62;44.73;95641.38;5086200;28;20008;-67
2022/09/01 09:52:36;;;;;;;;;;;;;;;21.39;46.69;95642.66;5085410;28;20059;-67
2022/09/01 09:55:17;;;;;;;;;;;;;;;21.35;47.25;95649.97;5087045;28;20445;-66
2022/09/01 09:57:43;;;;;;;;;;;;;;;20.95;47.86;95653.84;5087428;28;20009;-66
2022/09/01 10:00:29;;;;;;;;;;;;;;;21.22;47.23;95644.66;5089159;28;20020;-66
2022/09/01 10:03:03;;;;;;;;;;;;;;;21.39;48.33;95642.66;5089889;28;20096;-66
2022/09/01 10:05:47;;;;;;;;;;;;;;;21.97;47.08;95643.22;5089893;28;20362;-65
2022/09/01 10:08:36;;;;;;;;;;;;;;;22.22;46.87;95649.03;5087223;28;20045;-65
2022/09/01 10:11:03;;;;;;;;;;;;;;;21.73;47.83;95635.47;5089056;28;20017;-64
2022/09/01 10:13:29;;;;;;;;;;;;;;;21.59;48.31;95643.38;5087028;28;20020;-66
2022/09/01 10:15:56;;;;;;;;;;;;;;;22.13;48.09;95645.78;5070736;28;20044;-67
2022/09/01 10:18:24;;;;;;;;;;;;;;;21.61;47.74;95639.19;5087208;28;20052;-66
2022/09/01 10:20:58;;;;;;;;;;;;;;;21.57;47.30;95556.34;5100894;28;20031;-66
2022/09/01 10:23:26;;;;;;;;;;;;;;;22.05;45.86;95639.44;5077827;28;20053;-67
2022/09/01 10:25:53;;;;;;;;;;;;;;;21.90;46.30;95629.53;5087567;28;20005;-66
2022/09/01 10:28:22;;;;;;;;;;;;;;;21.83;46.11;95626.75;5083915;28;20066;-65
2022/09/01 10:30:50;;;;;;;;;;;;;;;22.05;46.02;95633.25;5088149;28;20457;-66
2022/09/01 10:33:16;;;;;;;;;;;;;;;22.75;44.58;95623.72;5084468;28;20450;-67
2022/09/01 10:35:43;;;;;;;;;;;;;;;22.60;44.10;95630.91;5088136;28;20119;-67
2022/09/01 10:38:13;;;;;;;;;;;;;;;21.72;46.13;95632.00;5087314;28;20021;-66
2022/09/01 10:40:45;;;;;;;;;;;;;;;22.41;44.92;95633.75;5079142;28;20009;-67
2022/09/01 10:43:26;;;;;;;;;;;;;;;22.53;44.25;95630.84;5087847;28;20004;-66
2022/09/01 10:45:51;;;;;;;;;;;;;;;22.94;43.41;95626.28;5088617;28;20013;-65
2022/09/01 10:48:19;;;;;;;;;;;;;;;22.89;43.80;95631.28;5087819;28;20645;-65
2022/09/01 10:50:46;;;;;;;;;;;;;;;22.94;44.15;95633.66;5088236;28;20017;-65
2022/09/01 10:53:30;;;;;;;;;;;;;;;22.29;44.29;95623.94;5087481;28;20009;-65
2022/09/01 10:56:04;;;;;;;;;;;;;;;21.98;45.19;95633.94;5088319;28;20105;-65
2022/09/01 10:58:38;;;;;;;;;;;;;;;22.75;44.25;95621.00;5088475;28;20005;-65
2022/09/01 11:01:04;;;;;;;;;;;;;;;22.99;44.07;95627.91;5088014;28;20107;-66
2022/09/01 11:03:37;;;;;;;;;;;;;;;23.32;42.99;95616.97;5090255;28;20107;-65
2022/09/01 11:06:04;;;;;;;;;;;;;;;24.06;41.96;95620.69;5085048;28;20095;-65
2022/09/01 11:08:29;;;;;;;;;;;;;;;24.34;41.89;95620.81;5090194;28;20017;-65
2022/09/01 11:10:58;;;;;;;;;;;;;;;23.38;41.70;95622.84;5086153;28;20023;-65
2022/09/01 11:13:29;;;;;;;;;;;;;;;23.25;41.94;95625.06;5082060;28;20491;-65
2022/09/01 11:15:54;;;;;;;;;;;;;;;23.04;41.13;95619.44;5074652;28;20013;-66
2022/09/01 11:18:25;;;;;;;;;;;;;;;22.75;42.02;95619.06;5072532;28;20099;-64
2022/09/01 11:20:51;;;;;;;;;;;;;;;23.58;40.82;95610.59;5072742;28;20519;-64
2022/09/01 11:23:18;;;;;;;;;;;;;;;22.87;41.96;95609.91;5081458;28;20009;-66
2022/09/01 11:25:43;;;;;;;;;;;;;;;23.25;41.00;95613.41;5092770;28;20001;-66
2022/09/01 11:28:15;;;;;;;;;;;;;;;24.10;39.38;95611.34;5092325;28;20009;-66
2022/09/01 11:30:53;;;;;;;;;;;;;;;24.33;39.58;95610.34;5075174;28;20020;-66
2022/09/01 11:33:22;;;;;;;;;;;;;;;24.37;38.49;95614.66;5080410;28;20004;-66
2022/09/01 11:35:57;;;;;;;;;;;;;;;23.70;40.39;95608.75;5102101;22;20170;-66
2022/09/01 11:38:23;;;;;;;;;;;;;;;23.09;42.07;95610.94;5071732;28;20062;-67
2022/09/01 11:40:53;;;;;;;;;;;;;;;22.50;43.36;95616.06;5074301;28;20009;-67
2022/09/01 11:43:19;;;;;;;;;;;;;;;22.72;43.13;95600.81;5090658;28;20534;-68
2022/09/01 11:46:03;;;;;;;;;;;;;;;22.24;43.47;95605.28;5089435;28;20044;-67
2022/09/01 11:48:29;;;;;;;;;;;;;;;22.09;43.36;95609.69;5074806;28;20107;-66
2022/09/01 11:51:04;;;;;;;;;;;;;;;22.24;43.19;95606.06;5092696;28;20518;-67
2022/09/01 11:53:29;;;;;;;;;;;;;;;22.60;41.89;95603.78;5092455;28;20149;-67
2022/09/01 11:55:56;;;;;;;;;;;;;;;22.64;41.16;95596.50;5092632;28;20100;-67
2022/09/01 11:58:27;;;;;;;;;;;;;;;23.33;40.57;95594.09;5092546;28;20013;-67
2022/09/01 12:00:59;;;;;;;;;;;;;;;23.72;40.43;95599.09;5073283;28;20016;-66
2022/09/01 12:03:27;;;;;;;;;;;;;;;24.59;39.45;95598.44;5071961;28;20005;-67
2022/09/01 12:05:58;;;;;;;;;;;;;;;25.24;37.07;95585.78;5072264;28;20002;-67
2022/09/01 12:08:25;;;;;;;;;;;;;;;25.22;36.78;95588.88;5072065;28;20010;-67
2022/09/01 12:11:02;;;;;;;;;;;;;;;25.89;35.93;95585.38;5072069;28;20044;-67
2022/09/01 12:13:28;;;;;;;;;;;;;;;25.03;36.79;95602.81;5071384;28;20665;-68
2022/09/01 12:15:54;;;;;;;;;;;;;;;24.55;37.33;95587.53;5070820;28;20053;-69
2022/09/01 12:18:21;;;;;;;;;;;;;;;23.70;39.32;95596.00;5071325;28;20005;-69
2022/09/01 12:20:48;;;;;;;;;;;;;;;23.48;40.14;95575.97;5053590;28;20009;-69
2022/09/01 12:23:22;;;;;;;;;;;;;;;23.68;38.98;95587.41;5071276;28;20511;-69
2022/09/01 12:25:48;;;;;;;;;;;;;;;24.07;38.89;95595.06;5053185;28;20020;-69
2022/09/01 12:28:13;;;;;;;;;;;;;;;24.12;38.19;95591.97;5070936;28;20441;-69
2022/09/01 12:30:43;;;;;;;;;;;;;;;24.64;37.76;95587.19;5070434;28;20014;-67
2022/09/01 12:33:10;;;;;;;;;;;;;;;25.34;36.97;95588.53;5070394;28;20071;-67
2022/09/01 12:35:35;;;;;;;;;;;;;;;25.74;35.53;95591.22;5090065;28;20362;-66
2022/09/01 12:38:19;;;;;;;;;;;;;;;26.23;35.17;95584.94;5091086;28;20016;-66
2022/09/01 12:40:46;;;;;;;;;;;;;;;26.28;34.60;95589.97;5091105;28;20457;-67
2022/09/01 12:43:25;;;;;;;;;;;;;;;26.84;34.03;95585.50;5090939;28;20424;-67
2022/09/01 12:45:50;;;;;;;;;;;;;;;26.43;33.11;95591.53;5090089;28;20008;-67
2022/09/01 12:48:23;;;;;;;;;;;;;;;26.71;33.80;95589.84;5077931;28;20013;-67
2022/09/01 12:50:49;;;;;;;;;;;;;;;26.37;34.79;95573.97;5091064;28;20762;-67
2022/09/01 12:53:16;;;;;;;;;;;;;;;26.77;34.12;95577.34;5082028;28;20055;-67
2022/09/01 12:55:52;;;;;;;;;;;;;;;26.18;34.65;95582.59;5076582;28;20385;-67
2022/09/01 12:58:24;;;;;;;;;;;;;;;25.56;35.88;95594.75;5068647;28;20061;-67